Time;durP1;ratioP1;P1;durP2;ratioP2;P2;SDS_P1;SDS_P2;PMS_P1;PMS_P2;Temp;Humidity;BMP_temperature;BMP_pressure;BME280_temperature;BME280_humidity;BME280_pressure;Samples;Min_cycle;Max_cycle;Signal;HPM_P1;HPM_P2
2022/08/10 00:01:03;;;;;;;3.92;1.80;;;;;;;19.29;64.45;102462.88;6211781;23;20064;-71
2022/08/10 00:03:28;;;;;;;2.28;1.45;;;;;;;19.25;64.93;102465.31;6215571;23;20004;-71
2022/08/10 00:05:55;;;;;;;5.40;2.10;;;;;;;19.17;64.73;102451.94;6215292;23;20000;-71
2022/08/10 00:08:23;;;;;;;3.30;1.90;;;;;;;19.20;64.84;102459.69;6215998;23;20032;-71
2022/08/10 00:10:50;;;;;;;4.00;1.83;;;;;;;19.21;64.51;102472.34;6215732;23;20091;-73
2022/08/10 00:13:16;;;;;;;3.13;1.63;;;;;;;19.23;64.69;102461.13;6214534;23;20039;-70
2022/08/10 00:15:41;;;;;;;4.18;1.85;;;;;;;19.21;64.50;102468.78;6214879;23;20009;-71
2022/08/10 00:18:06;;;;;;;2.55;1.65;;;;;;;19.19;65.05;102471.78;6215984;23;20130;-71
2022/08/10 00:20:31;;;;;;;6.70;2.25;;;;;;;19.18;64.67;102456.38;6215847;23;20008;-71
2022/08/10 00:22:58;;;;;;;6.55;1.77;;;;;;;19.12;64.93;102454.59;6215578;23;20031;-71
2022/08/10 00:25:23;;;;;;;1.60;1.50;;;;;;;19.10;65.06;102456.78;6214890;23;20104;-70
2022/08/10 00:27:48;;;;;;;3.00;1.85;;;;;;;19.07;65.02;102457.25;6215109;23;20469;-72
2022/08/10 00:30:13;;;;;;;3.33;1.70;;;;;;;19.02;65.27;102451.66;6189007;23;20005;-71
2022/08/10 00:32:39;;;;;;;5.60;1.88;;;;;;;18.98;65.15;102448.56;6214743;23;20040;-71
2022/08/10 00:35:04;;;;;;;2.05;1.70;;;;;;;18.98;65.45;102455.94;6215049;23;20369;-70
2022/08/10 00:37:30;;;;;;;4.68;1.67;;;;;;;18.89;65.75;102445.38;6215718;23;20000;-70
2022/08/10 00:39:55;;;;;;;1.98;1.60;;;;;;;18.85;65.83;102446.91;6215409;23;20406;-71
2022/08/10 00:42:20;;;;;;;2.05;1.65;;;;;;;18.89;65.77;102456.34;6214750;23;20008;-71
2022/08/10 00:44:48;;;;;;;3.13;1.80;;;;;;;18.89;65.78;102442.63;6213674;23;20008;-70
2022/08/10 00:47:15;;;;;;;2.85;1.88;;;;;;;18.92;65.68;102444.88;6215597;23;20020;-71
2022/08/10 00:49:40;;;;;;;2.97;1.95;;;;;;;18.87;65.82;102447.53;6215542;23;20039;-70
2022/08/10 00:52:07;;;;;;;6.22;1.98;;;;;;;18.83;66.21;102450.97;6214487;23;20004;-71
2022/08/10 00:54:34;;;;;;;3.83;2.22;;;;;;;18.77;66.30;102448.09;6214997;23;20001;-71
2022/08/10 00:57:00;;;;;;;2.20;2.00;;;;;;;18.78;65.71;102438.81;6215027;23;20015;-70
2022/08/10 00:59:25;;;;;;;4.40;1.88;;;;;;;18.73;66.35;102443.34;6215472;23;20395;-70
2022/08/10 01:01:50;;;;;;;3.83;2.10;;;;;;;18.72;66.71;102439.75;6210432;23;20016;-71
2022/08/10 01:04:16;;;;;;;2.85;1.98;;;;;;;18.65;66.81;102435.50;6214587;23;20330;-70
2022/08/10 01:06:51;;;;;;;2.97;2.00;;;;;;;18.64;66.44;102436.56;6188816;23;20008;-71
2022/08/10 01:09:30;;;;;;;3.90;2.03;;;;;;;18.63;66.73;102443.09;6215325;23;20001;-71
2022/08/10 01:12:13;;;;;;;3.75;2.10;;;;;;;18.60;66.55;102438.97;6214620;23;20007;-71
2022/08/10 01:14:48;;;;;;;7.53;2.20;;;;;;;18.51;67.51;102438.47;6214850;23;20084;-72
2022/08/10 01:17:51;;;;;;;3.75;2.03;;;;;;;18.49;67.03;102429.66;6215279;23;20005;-71
2022/08/10 01:20:28;;;;;;;2.60;1.88;;;;;;;18.55;67.28;102423.19;6213340;23;20005;-71
2022/08/10 01:23:14;;;;;;;2.40;2.15;;;;;;;18.51;67.45;102427.53;6214966;23;20015;-71
2022/08/10 01:26:11;;;;;;;2.38;2.15;;;;;;;18.51;67.18;102429.41;6214026;23;20011;-71
2022/08/10 01:28:47;;;;;;;2.13;1.88;;;;;;;18.37;68.36;102429.69;6214613;23;20079;-70
2022/08/10 01:31:18;;;;;;;2.55;2.00;;;;;;;18.35;68.56;102429.06;6214849;23;20031;-71
2022/08/10 01:33:48;;;;;;;;;;;;;;;18.49;66.42;102426.91;6215228;23;20333;-71
2022/08/10 01:36:19;;;;;;;3.20;2.00;;;;;;;18.35;68.54;102420.03;6214300;23;19916;-71
2022/08/10 01:38:48;;;;;;;2.42;2.00;;;;;;;18.27;69.02;102428.59;6215149;23;20027;-70
2022/08/10 01:41:21;;;;;;;4.15;1.88;;;;;;;18.20;68.81;102426.78;6214758;23;20088;-71
2022/08/10 01:44:02;;;;;;;2.35;2.15;;;;;;;18.23;69.16;102431.81;6214518;23;20414;-71
2022/08/10 01:46:29;;;;;;;3.90;2.33;;;;;;;18.12;69.92;102435.38;6214345;23;20008;-71
2022/08/10 01:48:57;;;;;;;5.35;2.28;;;;;;;18.12;70.18;102429.91;6214765;23;20000;-71
2022/08/10 01:51:29;;;;;;;4.70;2.42;;;;;;;18.12;70.22;102429.09;6214440;23;20105;-70
2022/08/10 01:53:59;;;;;;;5.43;2.40;;;;;;;18.01;70.85;102428.84;6214709;23;20448;-71
2022/08/10 01:56:27;;;;;;;3.33;2.50;;;;;;;17.96;70.99;102427.88;6214090;23;20016;-71
2022/08/10 01:58:56;;;;;;;3.78;2.50;;;;;;;18.00;71.37;102421.66;6214712;23;20004;-71
2022/08/10 02:01:24;;;;;;;5.75;2.45;;;;;;;18.04;71.02;102436.56;6210182;23;20066;-71
2022/08/10 02:03:52;;;;;;;2.90;2.63;;;;;;;18.00;71.29;102434.53;6214230;23;20080;-71
2022/08/10 02:06:21;;;;;;;4.32;2.40;;;;;;;17.98;71.35;102432.03;6214456;23;20062;-70
2022/08/10 02:08:48;;;;;;;8.25;2.70;;;;;;;17.91;71.74;102434.06;6214955;23;20027;-70
2022/08/10 02:11:15;;;;;;;3.05;2.67;;;;;;;17.93;71.85;102425.59;6214708;23;20004;-70
2022/08/10 02:13:43;;;;;;;5.05;2.35;;;;;;;17.86;72.19;102434.72;6215180;23;20051;-71
2022/08/10 02:16:10;;;;;;;3.10;2.50;;;;;;;17.86;72.41;102434.72;6214141;23;20090;-70
2022/08/10 02:18:36;;;;;;;6.50;2.78;;;;;;;17.83;72.79;102431.59;6214908;23;20004;-70
2022/08/10 02:21:05;;;;;;;4.78;2.67;;;;;;;17.76;73.46;102418.03;6214099;23;20028;-71
2022/08/10 02:23:34;;;;;;;5.65;2.80;;;;;;;17.77;73.54;102416.97;6214891;23;20326;-70
2022/08/10 02:26:02;;;;;;;4.30;2.50;;;;;;;17.71;73.88;102428.88;6214461;23;20058;-71
2022/08/10 02:28:29;;;;;;;3.17;2.67;;;;;;;17.70;73.84;102419.81;6214426;23;20072;-70
2022/08/10 02:31:03;;;;;;;4.07;2.90;;;;;;;17.72;73.81;102411.34;6214219;23;20389;-70
2022/08/10 02:33:30;;;;;;;4.05;2.78;;;;;;;17.64;74.32;102420.75;6214448;23;20004;-71
2022/08/10 02:35:59;;;;;;;3.50;2.33;;;;;;;17.72;73.85;102419.56;6187174;23;20311;-71
2022/08/10 02:38:31;;;;;;;2.75;2.53;;;;;;;17.62;74.32;102419.31;6214850;23;20079;-71
2022/08/10 02:41:07;;;;;;;4.95;2.53;;;;;;;17.61;74.85;102425.88;6187510;23;20036;-71
2022/08/10 02:43:37;;;;;;;2.67;2.47;;;;;;;17.64;74.55;102422.66;6214538;23;20016;-71
2022/08/10 02:46:07;;;;;;;2.78;2.50;;;;;;;17.59;75.15;102420.63;6214024;23;20083;-70
2022/08/10 02:48:40;;;;;;;7.78;3.10;;;;;;;17.54;75.39;102420.47;6214923;23;20124;-70
2022/08/10 02:51:13;;;;;;;7.95;2.80;;;;;;;17.50;75.94;102422.03;6214106;23;20432;-70
2022/08/10 02:53:55;;;;;;;4.43;2.63;;;;;;;17.44;75.80;102418.31;6214532;23;20055;-71
2022/08/10 02:56:27;;;;;;;6.93;3.00;;;;;;;17.46;76.31;102413.44;6213474;23;20005;-71
2022/08/10 02:59:10;;;;;;;5.22;3.08;;;;;;;17.42;76.25;102409.50;6214393;23;20068;-71
2022/08/10 03:01:42;;;;;;;4.88;3.00;;;;;;;17.43;76.43;102404.88;6209565;23;20519;-70
2022/08/10 03:04:15;;;;;;;5.43;3.20;;;;;;;17.47;75.99;102401.44;6214471;23;20059;-72
2022/08/10 03:06:43;;;;;;;3.50;3.20;;;;;;;17.39;76.85;102399.00;6214130;23;20004;-70
2022/08/10 03:09:12;;;;;;;3.33;2.83;;;;;;;17.44;76.91;102401.06;6214026;23;20001;-70
2022/08/10 03:11:39;;;;;;;4.57;3.13;;;;;;;17.41;77.00;102401.50;6213851;23;20035;-71
2022/08/10 03:14:07;;;;;;;5.97;3.30;;;;;;;17.31;77.93;102396.59;6213892;23;20240;-71
2022/08/10 03:16:34;;;;;;;6.00;3.28;;;;;;;17.29;78.01;102393.28;6214823;23;20062;-71
2022/08/10 03:19:03;;;;;;;4.60;3.22;;;;;;;17.21;79.11;102390.84;6215732;23;20135;-70
2022/08/10 03:21:29;;;;;;;4.15;3.22;;;;;;;17.23;78.75;102395.03;6215849;23;20062;-70
2022/08/10 03:23:58;;;;;;;5.80;3.05;;;;;;;17.23;78.90;102394.22;6215742;23;20548;-70
2022/08/10 03:26:25;;;;;;;5.25;3.50;;;;;;;17.28;78.32;102394.34;6215875;23;20418;-71
2022/08/10 03:28:51;;;;;;;8.70;3.75;;;;;;;17.17;79.50;102395.97;6216581;23;20016;-71
2022/08/10 03:31:17;;;;;;;5.28;3.50;;;;;;;17.18;79.38;102394.88;6215735;23;20528;-71
2022/08/10 03:33:44;;;;;;;4.80;3.65;;;;;;;17.20;79.25;102397.41;6216303;23;20008;-70
2022/08/10 03:36:10;;;;;;;4.03;3.63;;;;;;;17.14;79.70;102389.06;6215514;23;20005;-70
2022/08/10 03:38:35;;;;;;;4.72;3.60;;;;;;;17.16;79.87;102388.81;6216212;23;20087;-71
2022/08/10 03:41:03;;;;;;;4.85;3.80;;;;;;;17.04;80.82;102398.88;6215573;23;20004;-70
2022/08/10 03:43:30;;;;;;;6.47;3.85;;;;;;;16.97;81.90;102390.78;6215489;23;20059;-71
2022/08/10 03:45:58;;;;;;;9.90;3.78;;;;;;;16.96;82.01;102400.84;6215375;23;20058;-71
2022/08/10 03:48:26;;;;;;;5.80;3.85;;;;;;;17.02;81.60;102399.13;6216174;23;20012;-71
2022/08/10 03:50:54;;;;;;;4.43;3.75;;;;;;;16.93;82.80;102401.31;6215383;23;20083;-71
2022/08/10 03:53:20;;;;;;;5.55;3.90;;;;;;;16.93;82.35;102400.50;6215807;23;20417;-71
2022/08/10 03:55:46;;;;;;;4.13;3.72;;;;;;;16.87;83.60;102401.41;6215659;23;20004;-71
2022/08/10 03:58:12;;;;;;;5.32;3.28;;;;;;;16.86;83.74;102399.72;6215884;23;20015;-71
2022/08/10 04:00:38;;;;;;;4.88;3.55;;;;;;;16.80;84.45;102405.03;6211856;23;20032;-71
2022/08/10 04:03:04;;;;;;;4.60;4.03;;;;;;;16.82;84.21;102405.63;6215573;23;20009;-70
2022/08/10 04:05:31;;;;;;;6.22;3.65;;;;;;;16.77;85.25;102397.28;6215573;23;20444;-72
2022/08/10 04:07:58;;;;;;;5.25;3.65;;;;;;;16.76;85.29;102401.09;6215828;23;20297;-70
2022/08/10 04:10:23;;;;;;;6.45;3.95;;;;;;;16.75;85.79;102395.84;6215481;23;20000;-70
2022/08/10 04:12:48;;;;;;;5.25;3.90;;;;;;;16.80;84.59;102399.56;6215809;23;20312;-71
2022/08/10 04:15:14;;;;;;;5.70;3.95;;;;;;;16.88;84.16;102403.06;6214810;23;20000;-70
2022/08/10 04:17:39;;;;;;;7.22;4.35;;;;;;;16.84;84.71;102405.41;6215896;23;20431;-70
2022/08/10 04:20:06;;;;;;;4.20;3.55;;;;;;;16.79;85.40;102400.63;6215243;23;20079;-71
2022/08/10 04:22:34;;;;;;;9.18;4.72;;;;;;;16.67;86.58;102407.94;6215411;23;20011;-71
2022/08/10 04:25:02;;;;;;;10.75;4.00;;;;;;;16.69;87.34;102410.44;6215047;23;20012;-71
2022/08/10 04:27:28;;;;;;;6.38;4.00;;;;;;;16.65;88.12;102410.03;6215240;23;20062;-70
2022/08/10 04:29:54;;;;;;;8.02;3.92;;;;;;;16.71;87.25;102400.91;6215329;23;20086;-71
2022/08/10 04:32:22;;;;;;;5.97;4.00;;;;;;;16.68;87.67;102409.56;6215495;23;20422;-71
2022/08/10 04:34:48;;;;;;;6.22;3.90;;;;;;;16.61;88.39;102414.31;6215281;23;20406;-72
2022/08/10 04:37:16;;;;;;;6.63;3.78;;;;;;;16.57;89.26;102407.63;6215352;23;20084;-71
2022/08/10 04:39:42;;;;;;;5.38;3.88;;;;;;;16.63;88.27;102407.53;6215285;23;20005;-71
2022/08/10 04:42:08;;;;;;;10.85;4.32;;;;;;;16.60;88.60;102407.97;6215690;23;20398;-71
2022/08/10 04:44:33;;;;;;;6.53;4.40;;;;;;;16.62;88.63;102405.03;6215570;23;20012;-71
2022/08/10 04:46:59;;;;;;;5.50;4.15;;;;;;;16.68;88.05;102408.75;6214616;23;20012;-71
2022/08/10 04:49:25;;;;;;;5.35;4.18;;;;;;;16.69;87.85;102402.22;6215622;23;20066;-71
2022/08/10 04:51:50;;;;;;;6.97;4.25;;;;;;;16.70;88.31;102398.41;6214751;23;20016;-71
2022/08/10 04:54:15;;;;;;;5.82;4.15;;;;;;;16.64;88.82;102391.97;6214784;23;20004;-72
2022/08/10 04:56:40;;;;;;;6.20;4.20;;;;;;;16.67;88.78;102397.00;6215082;23;20008;-70
2022/08/10 04:59:10;;;;;;;6.93;4.28;;;;;;;16.65;89.75;102390.91;6215209;23;20045;-71
2022/08/10 05:01:37;;;;;;;6.97;4.10;;;;;;;16.66;89.63;102395.31;6211062;23;20023;-70
2022/08/10 05:04:02;;;;;;;7.07;4.10;;;;;;;16.70;89.47;102396.53;6215214;23;20015;-70
2022/08/10 05:06:27;;;;;;;6.45;4.25;;;;;;;16.65;89.59;102386.28;6214467;23;20001;-71
2022/08/10 05:08:53;;;;;;;9.93;4.80;;;;;;;16.71;88.57;102392.72;6215390;23;20346;-70
2022/08/10 05:11:18;;;;;;;7.32;4.70;;;;;;;16.75;89.26;102399.41;6214696;23;20010;-70
2022/08/10 05:13:44;;;;;;;12.75;4.72;;;;;;;16.71;89.96;102392.72;6215218;23;20009;-70
2022/08/10 05:16:09;;;;;;;7.43;4.50;;;;;;;16.74;89.89;102399.63;6214175;23;20015;-71
2022/08/10 05:18:34;;;;;;;5.63;4.47;;;;;;;16.80;88.92;102398.72;6214419;23;20004;-71
2022/08/10 05:20:59;;;;;;;6.32;4.43;;;;;;;16.81;89.03;102386.72;6215259;23;20047;-72
2022/08/10 05:23:25;;;;;;;7.57;4.60;;;;;;;16.81;88.97;102393.03;6214976;23;20422;-71
2022/08/10 05:25:50;;;;;;;6.28;4.45;;;;;;;16.80;90.18;102393.25;6214721;23;20004;-71
2022/08/10 05:28:15;;;;;;;7.32;5.10;;;;;;;16.84;89.19;102397.19;6214126;23;20000;-71
2022/08/10 05:30:41;;;;;;;6.90;4.70;;;;;;;16.94;88.62;102403.00;6215256;23;20000;-70
2022/08/10 05:33:09;;;;;;;7.40;4.50;;;;;;;16.87;89.45;102407.72;6213935;23;20079;-71
2022/08/10 05:35:34;;;;;;;10.40;4.85;;;;;;;16.89;89.82;102405.56;6215132;23;19997;-71
2022/08/10 05:38:00;;;;;;;10.60;5.18;;;;;;;16.87;90.63;102412.34;6215076;23;20083;-70
2022/08/10 05:40:26;;;;;;;10.73;5.38;;;;;;;16.84;91.44;102408.97;6214596;23;20013;-71
2022/08/10 05:42:51;;;;;;;7.00;4.90;;;;;;;16.83;91.98;102407.31;6214386;23;20014;-71
2022/08/10 05:45:23;;;;;;;9.68;5.05;;;;;;;16.86;91.94;102413.38;6214828;23;20083;-71
2022/08/10 05:47:49;;;;;;;10.32;5.95;;;;;;;16.88;92.74;102408.53;6215072;23;20575;-72
2022/08/10 05:50:20;;;;;;;9.02;5.13;;;;;;;16.93;92.76;102406.78;6214065;23;20000;-71
2022/08/10 05:52:45;;;;;;;9.60;5.40;;;;;;;16.96;92.60;102405.50;6187859;23;20425;-71
2022/08/10 05:55:11;;;;;;;9.10;5.00;;;;;;;17.05;91.00;102406.03;6214909;23;20099;-70
2022/08/10 05:57:37;;;;;;;7.53;5.35;;;;;;;17.06;91.80;102411.28;6215055;23;20012;-72
2022/08/10 06:00:07;;;;;;;11.80;5.63;;;;;;;17.04;92.18;102418.84;6214250;23;20008;-72
2022/08/10 06:02:36;;;;;;;6.07;5.47;;;;;;;17.08;91.36;102414.59;6209652;23;20410;-71
2022/08/10 06:05:12;;;;;;;8.60;5.97;;;;;;;17.14;92.19;102408.19;6214915;23;20005;-70
2022/08/10 06:07:46;;;;;;;7.28;6.00;;;;;;;17.25;90.92;102414.78;6215054;23;20001;-71
2022/08/10 06:10:14;;;;;;;7.85;5.90;;;;;;;17.31;90.53;102413.84;6214249;23;20426;-71
2022/08/10 06:12:39;;;;;;;8.50;6.07;;;;;;;17.34;91.29;102415.28;6214362;23;20001;-71
2022/08/10 06:15:06;;;;;;;6.82;6.13;;;;;;;17.37;91.72;102417.56;6214587;23;20012;-71
2022/08/10 06:17:32;;;;;;;7.35;5.93;;;;;;;17.46;90.17;102420.81;6214960;23;20000;-71
2022/08/10 06:19:59;;;;;;;9.60;6.13;;;;;;;17.51;89.19;102424.53;6214465;23;20099;-71
2022/08/10 06:22:26;;;;;;;7.07;6.25;;;;;;;17.52;88.63;102419.88;6214594;23;20028;-71
2022/08/10 06:24:52;;;;;;;8.75;6.35;;;;;;;17.61;88.46;102423.13;6214691;23;20001;-70
2022/08/10 06:27:18;;;;;;;7.55;6.22;;;;;;;17.62;88.32;102419.31;6214565;23;20005;-71
2022/08/10 06:29:44;;;;;;;10.35;6.10;;;;;;;17.66;88.18;102418.63;6187757;23;20012;-71
2022/08/10 06:32:12;;;;;;;7.85;6.28;;;;;;;17.72;87.97;102419.56;6214055;23;20009;-71
2022/08/10 06:34:44;;;;;;;11.77;6.70;;;;;;;17.71;87.31;102421.47;6214731;23;20000;-70
2022/08/10 06:37:11;;;;;;;6.85;6.15;;;;;;;17.72;87.26;102419.56;6214414;23;20084;-70
2022/08/10 06:39:37;;;;;;;10.50;6.10;;;;;;;17.84;86.22;102414.94;6211748;23;20081;-71
2022/08/10 06:42:14;;;;;;;9.57;6.25;;;;;;;17.93;85.83;102410.00;6213845;23;20088;-73
2022/08/10 06:44:46;;;;;;;11.75;6.93;;;;;;;17.97;85.48;102415.84;6214526;23;20012;-70
2022/08/10 06:47:13;;;;;;;7.07;6.10;;;;;;;18.05;85.40;102416.31;6213409;23;20334;-69
2022/08/10 06:49:39;;;;;;;8.50;6.10;;;;;;;18.12;83.94;102410.72;6186247;23;20039;-72
2022/08/10 06:52:09;;;;;;;9.30;6.70;;;;;;;18.18;83.28;102417.16;6215380;23;20000;-71
2022/08/10 06:54:36;;;;;;;13.05;6.43;;;;;;;18.28;82.49;102416.56;6216179;23;20099;-70
2022/08/10 06:57:01;;;;;;;7.43;6.32;;;;;;;18.31;81.44;102407.88;6216567;23;20000;-71
2022/08/10 06:59:39;;;;;;;13.32;6.85;;;;;;;18.36;81.54;102414.31;6215470;23;20384;-71
2022/08/10 07:02:13;;;;;;;9.73;6.18;;;;;;;18.40;80.63;102414.66;6212076;23;20028;-71
2022/08/10 07:04:47;;;;;;;10.82;6.10;;;;;;;18.43;80.44;102422.38;6216439;23;20005;-70
2022/08/10 07:07:19;;;;;;;12.88;5.95;;;;;;;18.44;80.23;102424.06;6215966;23;20012;-71
2022/08/10 07:09:46;;;;;;;7.45;6.50;;;;;;;18.50;79.87;102428.59;6215422;23;20496;-71
2022/08/10 07:12:13;;;;;;;11.65;5.97;;;;;;;18.63;78.64;102432.13;6214265;23;20008;-72
2022/08/10 07:14:42;;;;;;;9.30;5.47;;;;;;;18.67;78.49;102425.09;6215771;23;20000;-71
2022/08/10 07:17:17;;;;;;;7.88;5.30;;;;;;;18.76;77.35;102426.41;6216461;23;20087;-71
2022/08/10 07:19:48;;;;;;;13.07;6.20;;;;;;;18.82;76.86;102428.16;6215980;23;20599;-72
2022/08/10 07:22:15;;;;;;;9.00;5.55;;;;;;;18.90;76.58;102425.09;6215654;23;20011;-72
2022/08/10 07:24:43;;;;;;;9.90;6.00;;;;;;;18.95;76.18;102429.84;6213562;23;20449;-70
2022/08/10 07:27:09;;;;;;;10.40;6.13;;;;;;;19.00;75.43;102434.59;6215856;23;20001;-71
2022/08/10 07:29:35;;;;;;;11.32;5.55;;;;;;;19.07;75.08;102427.91;6215594;23;20000;-69
2022/08/10 07:32:02;;;;;;;7.00;5.38;;;;;;;19.13;75.08;102426.09;6215121;23;20087;-70
2022/08/10 07:34:30;;;;;;;7.63;5.53;;;;;;;19.23;74.20;102434.50;6215122;23;20032;-71
2022/08/10 07:37:02;;;;;;;7.85;5.63;;;;;;;19.29;73.51;102424.47;6216058;23;20001;-70
2022/08/10 07:39:30;;;;;;;9.70;5.30;;;;;;;19.37;72.67;102428.72;6215733;23;20063;-71
2022/08/10 07:41:57;;;;;;;11.32;5.60;;;;;;;19.44;72.67;102426.66;6215064;23;20365;-72
2022/08/10 07:44:26;;;;;;;12.88;5.50;;;;;;;19.56;72.62;102432.91;6188590;23;20476;-71
2022/08/10 07:46:55;;;;;;;7.13;5.53;;;;;;;19.61;71.48;102429.44;6215633;23;20345;-71
2022/08/10 07:49:24;;;;;;;6.55;5.53;;;;;;;19.66;70.63;102433.09;6215686;23;20008;-70
2022/08/10 09:02:33;;;;;;;6.15;4.88;;;;;;;21.71;64.02;102431.50;6186169;23;20024;-72
2022/08/10 09:05:18;;;;;;;11.43;6.80;;;;;;;21.81;62.70;102438.19;6126513;23;20021;-71
2022/08/10 09:07:55;;;;;;;9.13;5.53;;;;;;;21.88;62.93;102433.28;6183121;23;20009;-72
2022/08/10 09:10:39;;;;;;;8.93;5.50;;;;;;;21.93;62.67;102425.06;6183863;23;20032;-71
2022/08/10 09:13:30;;;;;;;6.20;5.18;;;;;;;22.02;62.60;102414.38;6184682;23;20047;-70
2022/08/10 09:16:14;;;;;;;;;;;;;;;22.09;63.10;102418.56;6185918;23;20001;-69
2022/08/10 09:19:07;;;;;;;10.23;5.20;;;;;;;22.21;62.32;102404.59;6184586;23;20273;-72
2022/08/10 09:21:45;;;;;;;7.38;5.13;;;;;;;22.35;61.25;102415.19;6185068;23;20008;-70
2022/08/10 09:24:40;;;;;;;9.48;4.60;;;;;;;22.39;60.74;102417.13;6185305;23;20001;-72
2022/08/10 09:27:44;;;;;;;7.30;5.28;;;;;;;22.42;60.73;102408.31;6184533;23;20076;-71
2022/08/10 09:30:14;;;;;;;11.73;5.28;;;;;;;22.54;58.67;102398.97;6151207;23;20064;-69
2022/08/10 09:32:52;;;;;;;6.13;4.32;;;;;;;22.63;59.20;102397.38;6179384;23;20013;-70
2022/08/10 09:35:49;;;;;;;10.98;4.47;;;;;;;22.71;57.63;102394.09;6185716;23;20012;-70
2022/08/10 09:38:32;;;;;;;9.82;4.22;;;;;;;22.77;58.43;102395.78;6186021;23;20028;-70
2022/08/10 09:41:23;;;;;;;10.73;5.30;;;;;;;22.86;57.41;102387.81;6183325;23;20312;-70
2022/08/10 09:44:11;;;;;;;10.43;4.45;;;;;;;22.95;58.61;102393.66;6184022;23;20083;-70
2022/08/10 09:46:54;;;;;;;8.35;4.45;;;;;;;22.97;58.33;102394.19;6184825;23;20013;-70
2022/08/10 09:49:53;;;;;;;6.03;4.22;;;;;;;23.07;57.71;102399.75;6183629;23;20472;-70
2022/08/10 09:52:30;;;;;;;7.38;4.78;;;;;;;23.14;56.93;102391.22;6185035;23;20045;-70
2022/08/10 09:55:10;;;;;;;7.22;4.80;;;;;;;23.22;56.38;102384.34;6183250;23;20072;-71
2022/08/10 09:57:56;;;;;;;7.47;4.43;;;;;;;23.39;56.45;102387.69;6184507;23;20001;-69
2022/08/10 10:00:30;;;;;;;8.80;4.30;;;;;;;23.42;54.95;102384.38;6184128;23;20299;-72
2022/08/10 10:03:18;;;;;;;8.90;4.50;;;;;;;23.58;55.86;102384.38;6195290;23;20024;-69
2022/08/10 10:06:02;;;;;;;8.98;4.32;;;;;;;23.68;55.87;102381.63;6213309;23;20001;-73
2022/08/10 10:08:58;;;;;;;6.97;4.10;;;;;;;23.78;56.17;102376.09;6187233;23;20032;-70
2022/08/10 10:11:34;;;;;;;9.07;3.97;;;;;;;23.93;53.98;102371.66;6214748;23;20005;-72
2022/08/10 10:14:11;;;;;;;9.25;3.65;;;;;;;24.01;53.52;102373.88;6214192;23;20388;-72
2022/08/10 10:16:45;;;;;;;4.18;3.10;;;;;;;24.15;51.94;102363.88;6214889;23;20364;-72
2022/08/10 10:19:46;;;;;;;6.85;3.20;;;;;;;24.24;52.53;102364.94;6213753;23;20114;-74
2022/08/10 10:22:40;;;;;;;10.00;3.42;;;;;;;24.36;53.27;102359.09;6212816;23;20079;-70
2022/08/10 10:25:13;;;;;;;6.65;3.40;;;;;;;24.57;49.72;102357.09;6160433;23;20008;-72
2022/08/10 10:27:56;;;;;;;5.35;3.20;;;;;;;24.59;50.69;102352.16;6216666;23;20062;-71
2022/08/10 10:30:28;;;;;;;6.13;2.90;;;;;;;24.71;48.75;102348.19;6215765;23;20000;-71
2022/08/10 10:33:01;;;;;;;5.07;2.50;;;;;;;24.84;49.06;102353.13;6216139;23;20007;-72
2022/08/10 10:35:51;;;;;;;5.93;3.00;;;;;;;25.01;49.35;102346.38;6216921;23;20009;-69
2022/08/10 10:38:20;;;;;;;5.95;2.70;;;;;;;25.09;45.80;102341.06;6216138;23;20325;-70
2022/08/10 10:40:51;;;;;;;5.60;2.83;;;;;;;25.23;46.59;102341.22;6216459;23;20005;-70
2022/08/10 10:43:46;;;;;;;4.82;2.65;;;;;;;25.27;47.69;102341.47;6216785;23;20067;-71
2022/08/10 10:46:38;;;;;;;6.57;2.67;;;;;;;25.41;46.09;102339.72;6215976;23;20008;-70
2022/08/10 10:49:19;;;;;;;6.25;2.35;;;;;;;25.50;46.31;102333.56;6216124;23;20016;-70
2022/08/10 10:52:32;;;;;;;4.35;2.53;;;;;;;25.55;45.81;102331.56;6216325;23;20009;-70
2022/08/10 10:55:12;;;;;;;3.75;2.38;;;;;;;25.80;44.15;102324.97;6204648;23;20009;-69
2022/08/10 10:57:58;;;;;;;3.63;2.20;;;;;;;25.85;44.59;102326.84;6215774;23;20378;-69
2022/08/10 11:00:32;;;;;;;5.75;2.65;;;;;;;25.97;41.52;102318.94;6215652;23;20001;-69
2022/08/10 11:03:10;;;;;;;3.67;2.55;;;;;;;26.08;41.12;102319.69;6214348;23;20353;-70
2022/08/10 11:05:59;;;;;;;7.18;2.55;;;;;;;26.13;41.54;102311.31;6214881;23;20008;-70
2022/08/10 11:08:30;;;;;;;11.57;2.65;;;;;;;26.24;41.59;102312.03;6215852;23;20103;-70
2022/08/10 11:11:03;;;;;;;9.77;2.65;;;;;;;26.31;41.84;102303.31;6189664;23;20000;-70
2022/08/10 11:13:49;;;;;;;12.25;2.78;;;;;;;26.32;42.68;102303.03;6216484;23;20067;-70
2022/08/10 11:16:37;;;;;;;5.82;2.70;;;;;;;26.38;42.36;102301.00;6216085;23;20058;-70
2022/08/10 11:19:26;;;;;;;4.20;2.75;;;;;;;26.53;42.64;102302.75;6216246;23;20011;-69
2022/08/10 11:22:13;;;;;;;9.10;2.80;;;;;;;26.59;41.65;102290.47;6215784;23;20000;-71
2022/08/10 11:25:01;;;;;;;5.25;2.53;;;;;;;26.62;41.25;102289.03;6216084;23;20070;-70
2022/08/10 11:27:47;;;;;;;6.15;2.50;;;;;;;26.69;40.38;102290.34;6216015;23;20000;-71
2022/08/10 11:30:36;;;;;;;5.63;2.63;;;;;;;26.84;39.78;102288.44;6188822;23;20341;-71
2022/08/10 11:33:22;;;;;;;3.28;2.35;;;;;;;26.87;39.33;102297.03;6152960;23;20087;-72
2022/08/10 11:35:53;;;;;;;8.55;2.50;;;;;;;26.91;39.42;102285.31;6215522;23;20008;-71
2022/08/10 11:38:34;;;;;;;8.48;2.25;;;;;;;27.00;39.54;102289.88;6215888;23;20433;-71
2022/08/10 11:41:17;;;;;;;7.38;2.50;;;;;;;27.02;39.17;102295.13;6215825;23;20004;-71
2022/08/10 11:43:51;;;;;;;5.93;2.40;;;;;;;27.04;39.26;102290.09;6216311;23;20146;-70
2022/08/10 11:46:23;;;;;;;5.80;2.40;;;;;;;27.16;39.26;102289.59;6215850;23;20145;-72
2022/08/10 11:49:03;;;;;;;6.63;2.38;;;;;;;27.20;38.41;102282.31;6215882;23;20012;-71
2022/08/10 11:51:57;;;;;;;3.88;2.60;;;;;;;27.30;37.55;102287.72;6215817;23;20087;-72
2022/08/10 11:54:53;;;;;;;6.68;2.28;;;;;;;27.43;38.57;102280.56;6199376;23;20008;-71
2022/08/10 11:57:19;;;;;;;4.22;2.33;;;;;;;27.48;37.03;102268.50;6215323;23;20000;-73
2022/08/10 11:59:56;;;;;;;6.07;2.20;;;;;;;27.66;39.06;102275.97;6188236;23;20005;-71
2022/08/10 12:02:26;;;;;;;4.88;2.35;;;;;;;27.72;37.29;102274.75;6211684;23;20071;-72
2022/08/10 12:04:57;;;;;;;2.83;2.05;;;;;;;27.84;36.62;102262.28;6215793;23;20016;-71
2022/08/10 12:07:25;;;;;;;8.05;2.80;;;;;;;27.85;36.16;102266.72;6216057;23;20009;-72
2022/08/10 12:09:53;;;;;;;15.52;2.80;;;;;;;27.88;36.05;102268.88;6214789;23;20005;-72
2022/08/10 12:12:19;;;;;;;8.32;2.40;;;;;;;27.94;36.18;102273.19;6216009;23;20004;-71
2022/08/10 12:15:07;;;;;;;5.55;2.45;;;;;;;27.81;35.36;102257.31;6215574;23;20410;-72
2022/08/10 12:17:38;;;;;;;4.28;2.42;;;;;;;28.05;37.10;102258.00;6215494;23;20384;-72
2022/08/10 12:20:16;;;;;;;12.98;2.42;;;;;;;28.16;37.38;102263.31;6214601;23;20345;-72
2022/08/10 12:22:55;;;;;;;3.97;2.50;;;;;;;28.36;37.92;102259.28;6215858;23;20028;-72
2022/08/10 12:25:30;;;;;;;5.72;2.53;;;;;;;28.48;36.99;102258.75;6189254;23;20500;-71
2022/08/10 12:28:01;;;;;;;4.57;2.17;;;;;;;28.57;35.72;102262.44;6215528;23;20009;-72
2022/08/10 12:30:32;;;;;;;3.65;2.55;;;;;;;28.58;36.06;102258.47;6214669;23;20055;-72
2022/08/10 12:33:06;;;;;;;8.27;2.80;;;;;;;28.59;35.52;102254.56;6188617;23;20005;-71
2022/08/10 12:35:50;;;;;;;6.22;2.50;;;;;;;28.66;36.48;102246.66;6188771;23;20004;-71
2022/08/10 12:38:22;;;;;;;4.30;2.40;;;;;;;28.64;34.46;102241.38;6188420;23;20031;-71
2022/08/10 12:41:00;;;;;;;6.88;2.50;;;;;;;28.80;35.81;102247.41;6188827;23;20005;-71
2022/08/10 12:43:39;;;;;;;3.38;2.35;;;;;;;28.85;34.82;102237.28;6215779;23;20321;-71
2022/08/10 12:46:18;;;;;;;6.95;2.42;;;;;;;28.93;34.68;102239.31;6215092;23;20004;-71
2022/08/10 12:49:06;;;;;;;8.35;2.63;;;;;;;28.92;35.66;102234.88;6214351;23;20328;-71
2022/08/10 12:51:34;;;;;;;4.32;2.20;;;;;;;28.96;34.35;102224.75;6188592;23;20345;-71
2022/08/10 12:54:12;;;;;;;7.28;2.42;;;;;;;29.04;35.71;102232.31;6215222;23;20000;-72
2022/08/10 12:56:44;;;;;;;8.15;2.47;;;;;;;29.14;34.89;102226.50;6215421;23;20004;-71
2022/08/10 12:59:11;;;;;;;7.07;2.30;;;;;;;29.26;35.08;102228.72;6215206;23;20000;-71